Central Fund of Canada Limited (USA) (NYSEMKT:CEF)

CAPS Rating: 3 out of 5

Provides an investment alternative for investors interested in holding marketable gold and silver related investments. Invests primarily in long-term holdings of gold and silver bullion.

Results 1 - 99 of 734 : 1 2 3 4 5 6 7 8 Next »
Top
Pick
Member Name Member
Rating
Start
Date
Call Time
Frame
Start
Price
Stock
Gain
Index
Gain
Score Commentary
OnyongJun 92.22 7/25/2014 Outperform 3Y $14.19 -0.25% +0.11% -0.36 0 Comment
JessieL < 20 6/25/2014 Outperform 5Y $14.33 -1.26% +1.90% -3.16 0 Comment
alkusari 67.77 6/24/2014 Outperform 5Y $14.52 -2.55% +1.23% -3.78 0 Comment
bocacampeon 94.53 3/31/2014 Outperform 5Y $13.85 +2.17% +6.05% -3.88 0 Comment
Momentum22 29.66 3/18/2014 Outperform 5Y $14.74 -4.00% +5.49% -9.50 0 Comment
goingdown < 20 3/12/2014 Outperform 5Y $14.84 -4.62% +6.11% -10.73 0 Comment
Xucolat 56.11 11/17/2009 2/17/2014 Outperform 5Y $13.94 +1.50% +78.45% -76.95 1 Comment
unixopsys 44.38 1/22/2014 Outperform 1Y $13.57 +4.27% +7.34% -3.07 0 Comment
wackyfunster 81.75 1/16/2014 Outperform 5Y $13.67 +3.51% +7.41% -3.90 0 Comment
2win < 20 1/14/2014 Outperform NS $13.87 +2.02% +8.59% -6.57 1 Comment
timomimo 88.18 1/2/2014 Outperform 5Y $13.58 +4.20% +8.22% -4.02 0 Comment
BrodyBorder 27.02 12/5/2013 Outperform 5Y $13.30 +6.39% +10.35% -3.96 0 Comment
emptylarder 33.69 11/13/2013 Outperform 5Y $13.98 +1.22% +11.51% -10.29 0 Comment
crashtestcapital 54.63 10/29/2013 Outperform 3Y $15.22 -7.03% +11.93% -18.96 0 Comment
seakat45 < 20 10/14/2013 Outperform 5Y $14.15 0% +16.98% -16.98 0 Comment
BruceInCola 98.48 9/24/2013 Outperform 5Y $14.40 -1.74% +16.50% -18.24 0 Comment
maxy88 28.78 9/10/2013 Outperform 5Y $15.55 -9.01% +17.49% -26.49 0 Comment
mistermiranga 97.70 8/27/2013 Outperform 5Y $16.63 -14.89% +20.64% -35.53 0 Comment
kurtdabear 32.06 8/23/2013 Outperform 5Y $16.21 -12.70% +19.03% -31.73 1 Comment
aguadaboca 32.14 7/30/2013 Outperform 5Y $14.42 -1.88% +17.05% -18.93 0 Comment
sail2brasil 33.92 7/24/2013 Outperform 5Y $14.82 -4.52% +17.23% -21.75 0 Comment
winebroker2000 22.36 7/24/2013 Outperform 5Y $14.80 -4.39% +16.58% -20.97 0 Comment
Rangergold67 < 20 7/15/2013 Outperform 5Y $14.19 -0.29% +17.84% -18.13 0 Comment
bigmacm22 < 20 7/12/2013 Outperform 5Y $14.15 0% +18.25% -18.26 0 Comment
cashsage 29.39 7/8/2013 Outperform 5Y $13.62 +3.88% +20.75% -16.87 0 Comment
Adam1226 < 20 1/19/2010 7/6/2013 Outperform 5Y $14.35 -1.39% +72.81% -74.20 1 Comment
Swimms 74.67 6/21/2013 Outperform 5Y $14.14 +0.07% +24.58% -24.51 0 Comment
Stas3000 87.69 6/18/2013 Outperform 5Y $15.49 -8.65% +20.12% -28.77 0 Comment
Momentum21 93.34 5/24/2013 Outperform 5Y $15.71 -9.93% +20.35% -30.28 0 Comment
u2monee < 20 5/21/2013 Outperform 5Y $15.53 -8.88% +18.47% -27.35 0 Comment
SellOrNotinMay < 20 5/2/2013 Outperform 3M $16.82 -15.87% +23.94% -39.81 0 Comment
iannnn 29.05 4/19/2013 Outperform 5Y $16.30 -13.19% +28.12% -41.30 0 Comment
binve < 20 4/18/2013 Outperform NS $16.13 -12.27% +28.01% -40.28 0 Comment
kainvest 48.27 4/16/2013 Outperform 1Y $16.47 -14.08% +26.25% -40.33 1 Comment
vinelli 77.02 4/15/2013 Outperform 5Y $16.03 -11.74% +25.39% -37.13 0 Comment
goldminer11 < 20 4/15/2013 Outperform 5Y $16.08 -12.00% +25.34% -37.34 0 Comment
TheBest70 < 20 3/22/2013 Outperform 5Y $19.76 -28.38% +27.52% -55.90 0 Comment
Terok1313 31.06 3/8/2013 Outperform 3Y $19.56 -27.65% +27.47% -55.12 0 Comment
tinyworld < 20 3/7/2013 Outperform 1Y $19.74 -28.31% +27.95% -56.26 1 Comment
rzld36 29.96 3/6/2013 Outperform 5Y $19.46 -27.28% +27.83% -55.11 0 Comment
VeryShiny < 20 3/5/2013 Outperform 3M $19.65 -27.98% +28.82% -56.80 0 Comment
OoohShiny < 20 2/25/2013 Outperform 3M $20.01 -29.27% +30.70% -59.97 0 Comment
Gloriness < 20 2/21/2013 Outperform 3M $19.63 -27.91% +31.46% -59.37 0 Comment
IndianaLarry < 20 2/19/2013 Underperform 3M $20.17 -29.84% +29.91% +59.74 0 Comment
This player feels very strongly about this pick and has marked it a Top Pick. Top Picks do not affect a player’s score. rd80 98.46 2/4/2013 Outperform 5Y $21.49 -34.14% +31.68% -65.82 1 Comment
JeffersonAdams 87.29 3/26/2008 1/29/2013 Outperform 5Y $13.26 +6.74% +52.67% -45.93 0 Comment
galpick 42.20 10/1/2008 1/27/2013 Outperform 5Y $10.95 +29.27% +76.33% -47.06 0 Comment
Vince1172 44.04 1/24/2013 Outperform 5Y $21.90 -35.38% +32.71% -68.09 0 Comment
piesyor < 20 1/22/2013 Underperform 1Y $21.94 -35.49% +33.45% +68.94 0 Comment
jerryguru69 94.36 12/13/2012 Underperform 5Y $22.41 -36.85% +38.01% +74.86 0 Comment
bolthole22 < 20 11/27/2012 Outperform 5Y $23.13 -38.82% +40.80% -79.62 0 Comment
Adenovir 79.30 8/31/2007 11/26/2012 Outperform NS $9.07 +55.93% +41.12% +14.81 1 Comment
acesurewould < 20 11/19/2012 Outperform 5Y $22.88 -38.14% +42.98% -81.12 0 Comment
JoeleneW 75.08 10/19/2007 10/1/2012 Outperform 5Y $10.08 +40.38% +35.46% +4.92 0 Comment
whatevmatil < 20 9/28/2012 Outperform 5Y $23.79 -40.53% +37.37% -77.90 0 Comment
stockdatamaster 86.87 9/19/2012 Outperform 5Y $23.86 -40.70% +34.85% -75.55 0 Comment
gman444 28.85 9/5/2012 Outperform 5Y $22.34 -36.65% +40.29% -76.94 0 Comment
puccini3005 29.67 6/24/2009 8/27/2012 Outperform 3Y $11.75 +20.47% +120.70% -100.23 1 Comment
tcpprog < 20 8/24/2012 Outperform 5Y $21.32 -33.62% +41.07% -74.69 0 Comment
oldfashionedway 35.69 8/23/2011 8/22/2012 Outperform 3Y $25.13 -43.70% +71.88% -115.58 0 Comment
Moekie < 20 8/6/2012 Outperform 5Y $20.14 -29.73% +41.27% -71.00 0 Comment
This player feels very strongly about this pick and has marked it a Top Pick. Top Picks do not affect a player’s score. DarthMaul09 29.75 7/31/2012 Outperform 5Y $20.10 -29.59% +43.08% -72.68 1 Comment
rock338xxx < 20 6/7/2012 Outperform 5Y $20.98 -32.54% +48.30% -80.85 0 Comment
DanCooper76 < 20 6/1/2012 Outperform 5Y $19.62 -27.87% +53.29% -81.16 1 Comment
VanWilder < 20 5/11/2012 Outperform 5Y $19.79 -28.49% +45.44% -73.93 0 Comment
jkens < 20 10/29/2007 5/5/2012 Outperform 5Y $10.36 +36.60% +34.73% +1.88 0 Comment
marcd77 < 20 5/2/2012 Outperform 3Y $20.98 -32.54% +41.47% -74.01 0 Comment
phatchips767 < 20 4/24/2012 Outperform 1Y $21.09 -32.90% +44.58% -77.47 1 Comment
RockyMountainMan 98.07 4/10/2012 Outperform 5Y $21.39 -33.84% +43.49% -77.32 0 Comment
motleyanimal 89.80 2/29/2012 Outperform NS $22.93 -38.30% +44.38% -82.67 0 Comment
eeibbay < 20 11/30/2011 Outperform 5Y $22.30 -36.56% +59.55% -96.11 0 Comment
elboxeo < 20 11/25/2011 Outperform 5Y $21.41 -33.90% +70.08% -103.98 0 Comment
RallyCry < 20 11/23/2011 Outperform 5Y $21.69 -34.75% +67.65% -102.40 0 Comment
jdill23 26.54 11/22/2011 Outperform 1Y $22.05 -35.81% +66.25% -102.07 0 Comment
G8BigBoom 68.41 11/14/2011 Underperform 5Y $23.37 -39.46% +56.86% +96.32 0 Comment
LZAG < 20 11/11/2011 Outperform 5Y $23.38 -39.49% +57.31% -96.80 0 Comment
dss1343 < 20 11/3/2011 Outperform 1Y $23.02 -38.54% +58.71% -97.25 0 Comment
eldonbmyrtlbch < 20 10/28/2011 Outperform 3Y $23.26 -39.18% +54.64% -93.82 0 Comment
taylor2123 < 20 10/20/2011 Outperform 5Y $20.40 -30.63% +63.17% -93.80 0 Comment
Teknowizz 96.86 10/10/2011 Outperform 5Y $21.60 -34.48% +68.20% -102.68 0 Comment
dyskinetic 28.77 10/4/2011 Outperform 5Y $20.18 -29.88% +81.55% -111.42 0 Comment
JFiege 29.94 10/4/2011 Outperform 5Y $20.20 -29.95% +81.13% -111.08 0 Comment
squirrelgiggin 99.79 10/3/2011 Underperform 5Y $21.21 -33.28% +75.96% +109.24 0 Comment
Spyrig < 20 9/30/2011 Outperform 5Y $20.87 -32.19% +72.72% -104.91 0 Comment
veronafonte < 20 9/28/2011 Outperform 1Y $20.57 -31.22% +70.74% -101.96 0 Comment
mountaincouger 33.86 9/27/2011 Outperform 5Y $22.06 -35.84% +66.25% -102.10 0 Comment
Merlyn144 29.29 9/26/2011 Outperform 5Y $20.95 -32.45% +73.27% -105.72 0 Comment
cvdynasty2 99.85 9/26/2011 Outperform 5Y $21.01 -32.65% +72.33% -104.98 0 Comment
Fudex < 20 9/26/2011 Outperform 5Y $20.39 -30.60% +72.71% -103.31 0 Comment
This player feels very strongly about this pick and has marked it a Top Pick. Top Picks do not affect a player’s score. SamTheHobbit 30.12 9/23/2011 Outperform 5Y $20.99 -32.58% +74.77% -107.34 0 Comment
cvdynasty 99.95 9/23/2011 Outperform 5Y $20.99 -32.58% +74.77% -107.34 0 Comment
cecamadocv2 99.97 9/23/2011 Outperform 5Y $21.14 -33.06% +74.12% -107.17 0 Comment
EGTalbot < 20 9/23/2011 Outperform 3Y $21.70 -34.78% +74.55% -109.33 0 Comment
imobillc < 20 9/22/2011 Outperform 5Y $23.89 -40.78% +74.78% -115.56 0 Comment
pfoods6 < 20 9/20/2011 Outperform 1Y $25.18 -43.81% +64.27% -108.07 0 Comment
scluffman < 20 9/22/2010 9/17/2011 Outperform 3Y $16.34 -13.38% +74.39% -87.77 0 Comment
MathMusic 89.49 8/9/2011 9/15/2011 Outperform 1Y $22.88 -38.15% +72.72% -110.87 1 Comment
stationfool 53.10 9/14/2011 Outperform 5Y $25.05 -43.52% +66.69% -110.20 1 Comment
peachberrytea 77.82 9/13/2011 Outperform NS $24.55 -42.37% +69.11% -111.47 0 Comment

Featured Broker Partners


Advertisement